createdAt,value
2018-06-22T00:00:04.067Z,13.24
2018-06-22T00:01:04.059Z,13.33
2018-06-22T00:02:04.061Z,13.36
2018-06-22T00:03:04.052Z,13.22
2018-06-22T00:04:04.048Z,13.32
2018-06-22T00:05:04.039Z,13.30
2018-06-22T00:06:04.040Z,13.30
2018-06-22T00:07:04.036Z,13.29
2018-06-22T00:08:04.179Z,13.20
2018-06-22T00:09:04.037Z,13.25
2018-06-22T00:10:04.022Z,13.11
2018-06-22T00:11:04.006Z,13.06
2018-06-22T00:12:04.014Z,13.15
2018-06-22T00:13:04.196Z,13.11
2018-06-22T00:14:04.003Z,13.06
2018-06-22T00:15:03.995Z,13.00
2018-06-22T00:16:03.992Z,13.02
2018-06-22T00:17:03.992Z,12.96
2018-06-22T00:18:03.977Z,12.96
2018-06-22T00:19:03.979Z,12.87
2018-06-22T00:20:04.043Z,12.92
2018-06-22T00:21:04.048Z,12.87
2018-06-22T00:22:03.968Z,12.84
2018-06-22T00:23:03.961Z,12.81
2018-06-22T00:24:03.961Z,12.81
2018-06-22T00:25:03.951Z,12.74
2018-06-22T00:26:03.948Z,12.77
2018-06-22T00:27:03.939Z,12.59
2018-06-22T00:28:04.039Z,12.66
2018-06-22T00:29:04.102Z,12.59
2018-06-22T00:30:03.927Z,12.45
2018-06-22T00:31:03.956Z,12.42
2018-06-22T00:32:03.918Z,12.33
2018-06-22T00:33:03.918Z,12.34
2018-06-22T00:34:03.911Z,12.26
2018-06-22T00:35:03.902Z,12.23
2018-06-22T00:36:03.928Z,12.19
2018-06-22T00:37:03.892Z,12.16
2018-06-22T00:38:03.962Z,12.11
2018-06-22T00:39:03.886Z,12.08
2018-06-22T00:40:03.892Z,12.08
2018-06-22T00:41:03.977Z,12.04
2018-06-22T00:42:03.872Z,12.09
2018-06-22T00:43:03.859Z,12.05
2018-06-22T00:44:03.860Z,11.99
2018-06-22T00:45:03.852Z,11.99
2018-06-22T00:46:03.839Z,11.93
2018-06-22T00:47:03.843Z,11.90
2018-06-22T00:48:03.834Z,11.78
2018-06-22T00:49:03.838Z,11.93
2018-06-22T00:50:03.837Z,11.85
2018-06-22T00:51:03.820Z,11.78
2018-06-22T00:52:03.821Z,11.78
2018-06-22T00:53:03.812Z,11.78
2018-06-22T00:54:03.851Z,11.71
2018-06-22T00:55:03.795Z,11.57
2018-06-22T00:56:03.798Z,11.64
2018-06-22T00:57:03.793Z,11.57
2018-06-22T00:58:03.904Z,11.54
2018-06-22T00:59:03.779Z,11.50
2018-06-22T01:00:03.777Z,11.46
2018-06-22T01:01:04.729Z,11.46
2018-06-22T01:02:03.840Z,11.41
2018-06-22T01:03:03.899Z,11.36
2018-06-22T01:04:03.747Z,11.32
2018-06-22T01:05:03.748Z,11.28
2018-06-22T01:06:03.745Z,11.32
2018-06-22T01:07:03.751Z,11.31
2018-06-22T01:08:03.732Z,11.29
2018-06-22T01:09:03.725Z,11.28
2018-06-22T01:10:03.718Z,11.27
2018-06-22T01:11:03.713Z,11.29
2018-06-22T01:12:03.699Z,11.24
2018-06-22T01:13:03.798Z,11.21
2018-06-22T01:14:03.702Z,11.06
2018-06-22T01:15:03.720Z,11.13
2018-06-22T01:16:03.687Z,11.07
2018-06-22T01:17:03.680Z,11.13
2018-06-22T01:18:03.675Z,11.14
2018-06-22T01:19:03.670Z,11.03
2018-06-22T01:20:03.657Z,10.95
2018-06-22T01:21:03.652Z,10.96
2018-06-22T01:22:03.650Z,10.92
2018-06-22T01:23:03.680Z,10.98
2018-06-22T01:24:03.676Z,10.84
2018-06-22T01:25:03.631Z,10.83
2018-06-22T01:26:03.630Z,10.88
2018-06-22T01:27:03.627Z,10.84
2018-06-22T01:28:03.672Z,10.91
2018-06-22T01:29:03.602Z,10.70
2018-06-22T01:30:03.797Z,10.73
2018-06-22T02:03:03.218Z,10.14
2018-06-22T02:04:03.181Z,10.22
2018-06-22T02:05:56.445Z,10.15
2018-06-22T02:06:56.383Z,10.04
2018-06-22T02:08:49.349Z,10.03
2018-06-22T02:09:49.321Z,10.06
2018-06-22T02:11:42.212Z,9.97
2018-06-22T02:12:42.194Z,10.03
2018-06-22T02:14:35.374Z,10.01
2018-06-22T02:15:35.346Z,10.00
2018-06-22T02:16:35.340Z,10.00
2018-06-22T02:17:35.333Z,9.97
2018-06-22T02:18:35.325Z,9.91
2018-06-22T02:19:35.323Z,10.00
2018-06-22T02:20:35.309Z,9.85
2018-06-22T02:21:35.302Z,9.94
2018-06-22T02:22:35.296Z,9.86
2018-06-22T02:23:35.281Z,9.82
2018-06-22T02:24:35.293Z,9.82
2018-06-22T02:25:35.272Z,9.73
2018-06-22T02:26:35.279Z,9.64
2018-06-22T02:27:35.263Z,9.64
2018-06-22T02:28:35.256Z,9.57
2018-06-22T02:29:35.261Z,9.60
2018-06-22T02:30:35.243Z,9.64
2018-06-22T02:31:35.239Z,9.66
2018-06-22T02:32:35.230Z,9.68
2018-06-22T02:33:35.223Z,9.68
2018-06-22T02:34:35.233Z,9.67
2018-06-22T02:35:35.210Z,9.57
2018-06-22T02:36:35.209Z,9.63
2018-06-22T02:37:35.212Z,9.60
2018-06-22T02:38:35.190Z,9.53
2018-06-22T02:39:35.189Z,9.50
2018-06-22T02:40:35.177Z,9.48
2018-06-22T02:41:35.171Z,9.42
2018-06-22T02:42:35.164Z,9.48
2018-06-22T02:43:35.159Z,9.49
2018-06-22T02:44:35.153Z,9.43
2018-06-22T02:45:35.158Z,9.45
2018-06-22T02:46:35.137Z,9.43
2018-06-22T02:47:35.133Z,9.40
2018-06-22T02:48:35.128Z,9.40
2018-06-22T02:49:35.117Z,9.32
2018-06-22T02:50:35.115Z,9.27
2018-06-22T02:51:35.096Z,9.25
2018-06-22T02:52:35.122Z,9.23
2018-06-22T02:53:35.095Z,9.24
2018-06-22T02:54:35.085Z,9.25
2018-06-22T02:55:35.081Z,9.25
2018-06-22T02:56:35.072Z,9.25
2018-06-22T02:57:35.066Z,9.27
2018-06-22T02:58:35.061Z,9.24
2018-06-22T02:59:35.063Z,9.18
2018-06-22T03:00:35.037Z,9.23
2018-06-22T03:01:35.043Z,9.13
2018-06-22T03:02:35.038Z,9.12
2018-06-22T03:03:35.039Z,9.06
2018-06-22T03:04:35.016Z,9.02
2018-06-22T03:05:35.016Z,9.04
2018-06-22T03:06:35.012Z,8.97
2018-06-22T03:07:35.021Z,8.88
2018-06-22T03:08:35.002Z,8.84
2018-06-22T03:09:34.980Z,8.91
2018-06-22T03:10:34.980Z,8.94
2018-06-22T03:11:34.979Z,8.90
2018-06-22T03:12:34.961Z,8.84
2018-06-22T03:13:35.062Z,8.83
2018-06-22T03:14:34.969Z,8.97
2018-06-22T03:15:34.947Z,9.01
2018-06-22T03:16:34.945Z,8.88
2018-06-22T03:17:34.934Z,8.97
2018-06-22T03:18:34.928Z,8.96
2018-06-22T03:19:34.919Z,8.96
2018-06-22T03:20:34.911Z,8.90
2018-06-22T03:21:34.904Z,8.84
2018-06-22T03:22:34.900Z,8.81
2018-06-22T03:23:34.891Z,8.81
2018-06-22T03:24:34.886Z,8.84
2018-06-22T03:25:34.876Z,8.81
2018-06-22T03:26:34.873Z,8.84
2018-06-22T03:27:34.868Z,8.83
2018-06-22T03:28:34.856Z,8.75
2018-06-22T03:29:34.865Z,8.71
2018-06-22T03:30:34.851Z,8.78
2018-06-22T03:31:34.969Z,8.78
2018-06-22T03:32:34.977Z,8.73
2018-06-22T03:33:34.833Z,8.69
2018-06-22T03:34:34.818Z,8.66
2018-06-22T03:35:34.805Z,8.68
2018-06-22T03:36:34.805Z,8.72
2018-06-22T03:37:34.797Z,8.83
2018-06-22T03:38:34.793Z,8.78
2018-06-22T03:39:34.891Z,8.79
2018-06-22T03:40:34.782Z,8.79
2018-06-22T03:41:34.777Z,8.88
2018-06-22T03:42:34.768Z,8.84
2018-06-22T03:43:34.751Z,8.91
2018-06-22T03:44:34.784Z,8.94
2018-06-22T03:45:34.756Z,8.94
2018-06-22T03:46:34.740Z,9.06
2018-06-22T03:47:34.731Z,9.09
2018-06-22T03:48:34.727Z,9.09
2018-06-22T03:49:34.716Z,9.20
2018-06-22T03:50:34.724Z,9.21
2018-06-22T03:51:34.719Z,9.28
2018-06-22T03:52:34.698Z,9.30
2018-06-22T03:53:34.692Z,9.27
2018-06-22T03:54:34.683Z,9.27
2018-06-22T03:55:34.677Z,9.28
2018-06-22T03:56:34.741Z,9.31
2018-06-22T03:57:34.661Z,9.34
2018-06-22T03:58:34.660Z,9.27
2018-06-22T03:59:34.677Z,9.34
2018-06-22T04:00:34.654Z,9.35
2018-06-22T04:01:34.691Z,9.35
2018-06-22T04:02:34.632Z,9.46
2018-06-22T04:03:34.618Z,9.40
2018-06-22T04:04:34.637Z,9.45
2018-06-22T04:05:34.783Z,9.48
2018-06-22T04:06:34.609Z,9.39
2018-06-22T04:07:34.597Z,9.32
2018-06-22T04:08:34.604Z,9.32
2018-06-22T04:09:34.605Z,9.42
2018-06-22T04:10:34.581Z,9.58
2018-06-22T04:11:34.589Z,9.64
2018-06-22T04:12:34.574Z,9.68
2018-06-22T04:13:34.565Z,9.86
2018-06-22T04:14:34.558Z,9.83
2018-06-22T04:15:34.551Z,10.03
2018-06-22T04:16:34.562Z,10.01
2018-06-22T04:17:34.656Z,10.07
2018-06-22T04:18:34.531Z,10.26
2018-06-22T04:19:34.528Z,10.19
2018-06-22T04:20:34.526Z,10.22
2018-06-22T04:21:34.516Z,10.32
2018-06-22T04:22:34.513Z,10.30
2018-06-22T04:23:34.494Z,10.30
2018-06-22T04:24:34.498Z,10.44
2018-06-22T04:25:34.491Z,10.39
2018-06-22T04:26:34.490Z,10.32
2018-06-22T04:27:34.483Z,10.33
2018-06-22T04:28:34.472Z,10.37
2018-06-22T04:29:34.469Z,10.47
2018-06-22T04:30:34.538Z,10.56
2018-06-22T04:31:34.464Z,10.47
2018-06-22T04:32:34.454Z,10.52
2018-06-22T04:33:34.448Z,10.55
2018-06-22T04:34:34.441Z,10.66
2018-06-22T04:35:34.431Z,10.70
2018-06-22T04:36:34.433Z,10.81
2018-06-22T04:37:34.435Z,10.83
2018-06-22T04:38:34.481Z,11.06
2018-06-22T04:39:34.419Z,11.10
2018-06-22T04:40:34.412Z,10.99
2018-06-22T04:41:34.418Z,10.83
2018-06-22T04:42:34.401Z,10.83
2018-06-22T04:43:34.395Z,10.86
2018-06-22T04:44:34.390Z,10.88
2018-06-22T04:45:34.386Z,10.83
2018-06-22T04:46:34.387Z,10.84
2018-06-22T04:47:34.384Z,10.95
2018-06-22T04:48:34.379Z,10.94
2018-06-22T04:49:34.366Z,11.06
2018-06-22T04:50:34.358Z,11.02
2018-06-22T04:51:34.358Z,11.01
2018-06-22T04:52:34.354Z,10.80
2018-06-22T04:53:34.356Z,10.70
2018-06-22T04:54:34.348Z,10.66
2018-06-22T04:55:34.352Z,10.68
2018-06-22T04:56:34.333Z,10.42
2018-06-22T04:57:34.326Z,10.32
2018-06-22T04:58:34.325Z,10.33
2018-06-22T04:59:34.320Z,10.37
2018-06-22T05:00:34.309Z,10.46
2018-06-22T05:01:34.313Z,10.34
2018-06-22T05:02:34.301Z,10.39
2018-06-22T05:03:34.346Z,10.37
2018-06-22T05:04:34.299Z,10.34
2018-06-22T05:05:34.288Z,10.47
2018-06-22T05:06:34.285Z,10.51
2018-06-22T05:07:34.280Z,10.51
2018-06-22T05:08:34.275Z,10.46
2018-06-22T05:09:34.272Z,10.55
2018-06-22T05:10:34.268Z,10.60
2018-06-22T05:11:34.309Z,10.70
2018-06-22T05:12:34.255Z,10.73
2018-06-22T05:13:34.253Z,10.86
2018-06-22T05:14:34.246Z,10.70
2018-06-22T05:15:34.234Z,10.74
2018-06-22T05:16:34.233Z,10.78
2018-06-22T05:17:34.218Z,10.94
2018-06-22T05:18:34.223Z,10.96
2018-06-22T05:19:34.223Z,11.06
2018-06-22T05:20:34.225Z,11.02
2018-06-22T05:21:34.215Z,11.01
2018-06-22T05:22:34.218Z,11.07
2018-06-22T05:23:34.207Z,10.99
2018-06-22T05:24:34.221Z,11.07
2018-06-22T05:25:34.200Z,11.19
2018-06-22T05:26:34.197Z,11.13
2018-06-22T05:27:34.181Z,11.24
2018-06-22T05:28:34.179Z,11.31
2018-06-22T05:29:34.187Z,11.35
2018-06-22T05:30:34.186Z,11.53
2018-06-22T05:31:34.171Z,11.54
2018-06-22T05:32:34.276Z,11.56
2018-06-22T05:33:34.171Z,11.82
2018-06-22T05:34:34.248Z,11.78
2018-06-22T05:35:34.153Z,11.89
2018-06-22T05:36:34.156Z,11.72
2018-06-22T05:37:34.148Z,11.68
2018-06-22T05:38:34.140Z,11.85
2018-06-22T05:39:34.140Z,11.93
2018-06-22T05:40:34.149Z,11.87
2018-06-22T05:41:34.187Z,11.97
2018-06-22T05:42:34.133Z,11.89
2018-06-22T05:43:34.129Z,11.87
2018-06-22T05:44:34.127Z,11.90
2018-06-22T05:45:34.117Z,12.01
2018-06-22T05:46:34.119Z,11.97
2018-06-22T05:47:34.122Z,11.93
2018-06-22T05:48:34.107Z,12.06
2018-06-22T05:49:34.128Z,11.93
2018-06-22T05:50:34.130Z,11.89
2018-06-22T05:51:34.100Z,12.05
2018-06-22T05:52:34.100Z,12.29
2018-06-22T05:53:34.095Z,12.63
2018-06-22T05:54:34.090Z,12.52
2018-06-22T05:55:34.086Z,12.27
2018-06-22T05:56:34.097Z,12.33
2018-06-22T05:57:34.081Z,12.45
2018-06-22T05:58:34.068Z,12.77
2018-06-22T05:59:34.084Z,12.92
2018-06-22T06:00:34.076Z,12.87
2018-06-22T06:01:34.075Z,13.14
2018-06-22T06:02:34.066Z,13.32
2018-06-22T06:03:34.095Z,13.00
2018-06-22T06:04:34.062Z,12.89
2018-06-22T06:05:34.057Z,12.84
2018-06-22T06:06:34.052Z,12.79
2018-06-22T06:07:34.054Z,12.77
2018-06-22T06:08:34.051Z,12.88
2018-06-22T06:09:34.049Z,13.14
2018-06-22T06:10:34.068Z,13.40
2018-06-22T06:11:34.041Z,13.55
2018-06-22T06:12:34.087Z,14.06
2018-06-22T06:13:34.037Z,14.09
2018-06-22T06:14:34.063Z,14.21
2018-06-22T06:15:34.033Z,14.10
2018-06-22T06:16:34.037Z,14.14
2018-06-22T06:17:34.032Z,14.62
2018-06-22T06:18:34.025Z,14.67
2018-06-22T06:19:34.050Z,14.87
2018-06-22T06:20:34.019Z,14.60
2018-06-22T06:21:34.021Z,14.83
2018-06-22T06:22:34.014Z,15.02
2018-06-22T06:23:34.015Z,14.98
2018-06-22T06:24:34.017Z,15.30
2018-06-22T06:25:34.018Z,15.28
2018-06-22T06:26:34.011Z,15.09
2018-06-22T06:27:34.008Z,15.41
2018-06-22T06:28:34.007Z,15.02
2018-06-22T06:29:33.995Z,14.54
2018-06-22T06:30:34.008Z,14.78
2018-06-22T06:31:34.002Z,14.87
2018-06-22T06:32:34.002Z,14.83
2018-06-22T06:33:34.001Z,14.50
2018-06-22T06:34:33.998Z,14.81
2018-06-22T06:35:33.992Z,14.94
2018-06-22T06:36:33.996Z,14.90
2018-06-22T06:37:33.997Z,14.69
2018-06-22T06:38:33.993Z,14.69
2018-06-22T06:39:33.991Z,14.49
2018-06-22T06:40:33.982Z,14.68
2018-06-22T06:41:33.990Z,14.80
2018-06-22T06:42:33.988Z,14.91
2018-06-22T06:43:33.992Z,15.03
2018-06-22T06:44:33.989Z,14.90
2018-06-22T06:45:33.984Z,14.91
2018-06-22T06:46:33.984Z,15.02
2018-06-22T06:47:33.984Z,15.08
2018-06-22T06:48:33.983Z,15.05
2018-06-22T06:49:33.994Z,15.43
2018-06-22T06:50:33.980Z,15.82
2018-06-22T06:51:33.979Z,16.33
2018-06-22T06:52:33.977Z,16.60
2018-06-22T06:53:33.977Z,17.23
2018-06-22T06:54:33.973Z,16.88
2018-06-22T06:55:33.972Z,16.81
2018-06-22T06:56:33.993Z,16.49
2018-06-22T06:57:33.977Z,16.38
2018-06-22T06:58:33.973Z,15.97
2018-06-22T06:59:33.973Z,16.22
2018-06-22T07:00:33.966Z,16.35
2018-06-22T07:01:33.972Z,16.55
2018-06-22T07:02:33.974Z,16.70
2018-06-22T07:03:33.961Z,17.10
2018-06-22T07:04:33.965Z,17.63
2018-06-22T07:05:33.961Z,17.71
2018-06-22T07:06:33.970Z,18.27
2018-06-22T07:07:33.970Z,18.39
2018-06-22T07:08:34.075Z,18.65
2018-06-22T07:09:34.007Z,19.02
2018-06-22T07:10:33.959Z,19.35
2018-06-22T07:11:33.972Z,20.00
2018-06-22T07:12:33.981Z,20.31
2018-06-22T07:13:33.984Z,20.05
2018-06-22T07:14:33.991Z,20.50
2018-06-22T07:15:33.991Z,21.32
2018-06-22T07:16:34.045Z,21.06
2018-06-22T07:17:34.195Z,20.91
2018-06-22T07:18:34.061Z,20.21
2018-06-22T07:19:34.044Z,19.97
2018-06-22T07:20:34.026Z,19.15
2018-06-22T07:21:34.035Z,19.73
2018-06-22T07:22:34.041Z,19.42
2018-06-22T07:23:34.057Z,19.08
2018-06-22T07:24:34.068Z,19.65
2018-06-22T07:25:34.085Z,20.30
2018-06-22T07:26:34.075Z,21.24
2018-06-22T07:27:34.083Z,20.21
2018-06-22T07:28:34.090Z,20.64
2018-06-22T07:29:34.112Z,19.63
2018-06-22T07:30:34.159Z,20.50
2018-06-22T07:31:34.121Z,20.50
2018-06-22T07:32:34.137Z,19.76
2018-06-22T07:33:34.141Z,19.50
2018-06-22T07:34:34.148Z,19.58
2018-06-22T07:35:34.155Z,20.76
2018-06-22T07:36:34.169Z,21.57
2018-06-22T07:37:34.193Z,22.23
2018-06-22T07:38:34.181Z,22.28
2018-06-22T07:39:34.201Z,21.91
2018-06-22T07:40:34.205Z,22.25
2018-06-22T07:41:34.215Z,22.49
2018-06-22T07:42:34.228Z,22.49
2018-06-22T07:43:34.243Z,22.10
2018-06-22T07:44:34.252Z,21.59
2018-06-22T07:45:34.264Z,22.20
2018-06-22T07:46:34.277Z,22.13
2018-06-22T07:47:34.303Z,22.10
2018-06-22T07:48:34.298Z,23.35
2018-06-22T07:49:34.328Z,24.07
2018-06-22T07:50:34.322Z,23.24
2018-06-22T07:51:34.336Z,23.64
2018-06-22T07:52:34.347Z,23.71
2018-06-22T07:53:34.358Z,24.22
2018-06-22T07:54:34.373Z,24.95
2018-06-22T07:55:34.395Z,24.67
2018-06-22T07:56:34.399Z,24.61
2018-06-22T07:57:34.411Z,23.82
2018-06-22T07:58:34.470Z,22.20
2018-06-22T07:59:34.440Z,21.72
2018-06-22T08:00:34.454Z,21.46
2018-06-22T08:01:34.475Z,21.78
2018-06-22T08:02:34.480Z,21.74
2018-06-22T08:03:34.507Z,21.83
2018-06-22T08:04:34.506Z,22.39
2018-06-22T08:05:34.518Z,23.32
2018-06-22T08:06:34.550Z,23.19
2018-06-22T08:07:34.544Z,22.69
2018-06-22T08:08:34.561Z,22.84
2018-06-22T08:09:34.584Z,23.55
2018-06-22T08:10:34.585Z,24.80
2018-06-22T08:11:34.613Z,24.73
2018-06-22T08:12:34.615Z,24.05
2018-06-22T08:13:34.629Z,25.43
2018-06-22T08:14:34.638Z,26.21
2018-06-22T08:15:34.650Z,26.04
2018-06-22T08:16:34.693Z,26.76
2018-06-22T08:17:34.743Z,26.47
2018-06-22T08:18:34.699Z,26.62
2018-06-22T08:19:34.730Z,25.91
2018-06-22T08:20:34.738Z,27.01
2018-06-22T08:21:34.750Z,25.28
2018-06-22T08:22:34.773Z,25.07
2018-06-22T08:23:34.890Z,26.15
2018-06-22T08:24:34.798Z,26.08
2018-06-22T08:25:34.803Z,26.59
2018-06-22T08:26:34.827Z,27.14
2018-06-22T08:27:34.843Z,26.95
2018-06-22T08:28:34.847Z,24.75
2018-06-22T08:29:34.856Z,23.80
2018-06-22T08:30:34.883Z,23.02
2018-06-22T08:31:34.900Z,21.66
2018-06-22T08:32:35.096Z,22.80
2018-06-22T08:33:34.925Z,23.39
2018-06-22T08:34:34.940Z,24.34
2018-06-22T08:35:34.957Z,25.05
2018-06-22T08:36:34.977Z,25.22
2018-06-22T08:37:34.993Z,24.56
2018-06-22T08:38:35.004Z,25.07
2018-06-22T08:39:35.031Z,25.61
2018-06-22T08:40:35.038Z,24.53
2018-06-22T08:41:35.071Z,25.53
2018-06-22T08:42:35.070Z,25.67
2018-06-22T08:43:35.097Z,24.69
2018-06-22T08:44:35.102Z,24.45
2018-06-22T08:45:35.116Z,25.31
2018-06-22T08:46:35.130Z,26.22
2018-06-22T08:47:35.145Z,24.69
2018-06-22T08:48:35.164Z,25.71
2018-06-22T08:49:35.173Z,26.68
2018-06-22T08:50:35.198Z,25.89
2018-06-22T08:51:35.203Z,25.98
2018-06-22T08:52:35.222Z,26.62
2018-06-22T08:53:35.238Z,26.83
2018-06-22T08:54:35.263Z,27.10
2018-06-22T08:55:35.325Z,27.10
2018-06-22T08:56:35.284Z,27.67
2018-06-22T08:57:35.304Z,27.82
2018-06-22T08:58:35.307Z,26.77
2018-06-22T08:59:35.332Z,26.44
2018-06-22T09:00:35.369Z,26.67
2018-06-22T09:01:35.365Z,27.24
2018-06-22T09:02:35.379Z,27.61
2018-06-22T09:03:35.394Z,27.92
2018-06-22T09:04:35.414Z,28.16
2018-06-22T09:05:35.438Z,28.16
2018-06-22T09:06:35.450Z,28.28
2018-06-22T09:07:35.468Z,28.13
2018-06-22T09:08:35.505Z,27.89
2018-06-22T09:09:35.498Z,28.13
2018-06-22T09:10:35.517Z,28.31
2018-06-22T09:11:35.540Z,28.29
2018-06-22T09:12:35.589Z,26.94
2018-06-22T09:13:35.566Z,27.16
2018-06-22T09:14:35.648Z,27.91
2018-06-22T09:15:35.601Z,27.80
2018-06-22T09:16:35.622Z,28.43
2018-06-22T09:17:35.632Z,28.72
2018-06-22T09:18:35.829Z,26.99
2018-06-22T09:19:35.713Z,27.20
2018-06-22T09:20:35.704Z,26.55
2018-06-22T09:21:35.701Z,26.25
2018-06-22T09:22:35.723Z,27.09
2018-06-22T09:23:35.740Z,26.77
2018-06-22T09:24:35.765Z,28.38
2018-06-22T09:25:35.769Z,28.62
2018-06-22T09:26:35.788Z,28.91
2018-06-22T09:27:35.804Z,29.40
2018-06-22T09:28:35.826Z,27.59
2018-06-22T09:29:35.840Z,28.01
2018-06-22T09:30:35.854Z,27.54
2018-06-22T09:31:35.867Z,26.29
2018-06-22T09:32:35.890Z,25.54
2018-06-22T09:33:35.922Z,23.57
2018-06-22T09:34:35.933Z,22.60
2018-06-22T09:35:35.947Z,21.32
2018-06-22T09:36:35.951Z,21.59
2018-06-22T09:37:35.974Z,22.62
2018-06-22T09:38:36.010Z,24.42
2018-06-22T09:39:35.999Z,24.67
2018-06-22T09:40:36.012Z,24.73
2018-06-22T09:41:36.025Z,23.17
2018-06-22T09:42:36.052Z,23.27
2018-06-22T09:43:36.046Z,23.76
2018-06-22T09:44:36.064Z,24.26
2018-06-22T09:45:36.080Z,24.27
2018-06-22T09:46:36.100Z,23.86
2018-06-22T09:47:36.109Z,23.34
2018-06-22T09:48:36.123Z,23.09
2018-06-22T09:49:36.131Z,22.57
2018-06-22T09:50:36.178Z,21.98
2018-06-22T09:51:36.146Z,23.26
2018-06-22T09:52:36.162Z,22.13
2018-06-22T09:53:36.172Z,23.80
2018-06-22T09:54:36.180Z,25.07
2018-06-22T09:55:36.184Z,25.86
2018-06-22T09:56:36.198Z,25.97
2018-06-22T09:57:36.207Z,24.57
2018-06-22T09:58:36.222Z,23.60
2018-06-22T09:59:36.223Z,23.42
2018-06-22T10:00:36.243Z,24.71
2018-06-22T10:01:36.255Z,25.86
2018-06-22T10:02:36.277Z,26.49
2018-06-22T10:03:36.278Z,25.93
2018-06-22T10:04:36.330Z,26.43
2018-06-22T10:05:36.304Z,26.92
2018-06-22T10:06:36.319Z,26.89
2018-06-22T10:07:36.332Z,26.72
2018-06-22T10:08:36.347Z,27.23
2018-06-22T10:09:36.355Z,28.16
2018-06-22T10:10:36.376Z,28.62
2018-06-22T10:11:36.382Z,28.44
2018-06-22T10:12:36.406Z,27.09
2018-06-22T10:13:36.450Z,26.28
2018-06-22T10:14:36.432Z,24.87
2018-06-22T10:15:36.447Z,24.37
2018-06-22T10:16:36.468Z,24.08
2018-06-22T10:17:36.471Z,25.34
2018-06-22T10:18:36.484Z,26.69
2018-06-22T10:19:36.557Z,27.09
2018-06-22T10:20:36.515Z,26.43
2018-06-22T10:21:36.524Z,26.04
2018-06-22T10:22:36.535Z,26.69
2018-06-22T10:23:36.562Z,27.01
2018-06-22T10:24:36.563Z,27.42
2018-06-22T10:25:36.566Z,27.89
2018-06-22T10:26:36.600Z,27.67
2018-06-22T10:27:36.602Z,26.59
2018-06-22T10:28:36.624Z,25.62
2018-06-22T10:29:36.636Z,25.32
2018-06-22T10:30:36.647Z,25.52
2018-06-22T10:31:36.676Z,25.27
2018-06-22T10:32:36.677Z,26.06
2018-06-22T10:33:36.692Z,25.69
2018-06-22T10:34:36.708Z,25.00
2018-06-22T10:35:36.727Z,24.50
2018-06-22T10:36:36.730Z,24.57
2018-06-22T10:37:36.738Z,24.17
2018-06-22T10:38:36.757Z,25.19
2018-06-22T10:39:36.768Z,26.39
2018-06-22T10:40:36.777Z,27.57
2018-06-22T10:41:36.796Z,27.89
2018-06-22T10:42:36.812Z,28.40
2018-06-22T10:43:36.816Z,28.51
2018-06-22T10:44:36.843Z,28.21
2018-06-22T10:45:36.848Z,27.02
2018-06-22T10:46:36.862Z,26.69
2018-06-22T10:47:36.880Z,27.20
2018-06-22T10:48:36.901Z,26.68
2018-06-22T10:49:36.904Z,26.79
2018-06-22T10:50:36.920Z,25.35
2018-06-22T10:51:36.950Z,24.44
2018-06-22T10:52:37.071Z,24.23
2018-06-22T10:53:37.039Z,23.77
2018-06-22T10:54:36.990Z,23.02
2018-06-22T10:55:36.989Z,23.08
2018-06-22T10:56:37.043Z,22.97
2018-06-22T10:57:37.061Z,23.07
2018-06-22T10:58:37.032Z,23.09
2018-06-22T10:59:37.078Z,23.49
2018-06-22T11:00:37.042Z,24.64
2018-06-22T11:01:37.059Z,24.45
2018-06-22T11:02:37.061Z,24.52
2018-06-22T11:03:37.107Z,25.39
2018-06-22T11:04:37.089Z,25.64
2018-06-22T11:05:37.085Z,26.32
2018-06-22T11:06:37.099Z,25.99
2018-06-22T11:07:37.119Z,24.04
2018-06-22T11:08:37.131Z,23.98
2018-06-22T11:09:37.135Z,24.31
2018-06-22T11:10:37.153Z,24.61
2018-06-22T11:11:37.196Z,24.82
2018-06-22T11:12:37.163Z,24.68
2018-06-22T11:13:37.185Z,24.80
2018-06-22T11:14:37.182Z,24.64
2018-06-22T11:15:37.194Z,24.69
2018-06-22T11:16:37.218Z,25.32
2018-06-22T11:17:37.217Z,24.73
2018-06-22T11:18:37.226Z,24.73
2018-06-22T11:19:37.236Z,24.79
2018-06-22T11:20:37.250Z,25.67
2018-06-22T11:21:37.260Z,24.04
2018-06-22T11:22:37.266Z,23.05
2018-06-22T11:23:37.355Z,22.62
2018-06-22T11:24:37.407Z,22.41
2018-06-22T11:25:37.355Z,22.20
2018-06-22T11:26:37.367Z,21.78
2018-06-22T11:27:37.380Z,21.79
2018-06-22T11:28:37.382Z,21.16
2018-06-22T11:29:37.341Z,21.32
2018-06-22T11:30:37.339Z,20.76
2018-06-22T11:31:37.358Z,20.98
2018-06-22T11:32:37.381Z,21.29
2018-06-22T11:33:37.359Z,21.63
2018-06-22T11:34:37.364Z,22.16
2018-06-22T11:35:37.423Z,21.83
2018-06-22T11:36:37.375Z,21.46
2018-06-22T11:37:37.383Z,21.60
2018-06-22T11:38:37.380Z,22.99
2018-06-22T11:39:37.394Z,22.72
2018-06-22T11:40:37.405Z,22.35
2018-06-22T11:41:37.464Z,22.46
2018-06-22T11:42:37.415Z,22.22
2018-06-22T11:43:37.426Z,22.37
2018-06-22T11:44:37.489Z,22.46
2018-06-22T11:45:37.587Z,22.13
2018-06-22T11:46:37.444Z,22.27
2018-06-22T11:47:37.497Z,22.39
2018-06-22T11:48:37.456Z,22.67
2018-06-22T11:49:37.458Z,22.96
2018-06-22T11:50:37.464Z,23.15
2018-06-22T11:51:37.472Z,22.62
2018-06-22T11:52:37.479Z,23.01
2018-06-22T11:53:37.483Z,23.52
2018-06-22T11:54:37.495Z,23.75
2018-06-22T11:55:37.493Z,24.68
2018-06-22T11:56:37.499Z,24.77
2018-06-22T11:57:37.574Z,25.09
2018-06-22T11:58:37.516Z,25.32
2018-06-22T11:59:37.530Z,24.71
2018-06-22T12:00:37.586Z,24.45
2018-06-22T12:01:37.546Z,23.87
2018-06-22T12:02:37.546Z,23.55
2018-06-22T12:03:37.618Z,23.77
2018-06-22T12:04:37.597Z,23.85
2018-06-22T12:05:37.566Z,23.04
2018-06-22T12:06:37.714Z,22.35
2018-06-22T12:07:37.584Z,22.46
2018-06-22T12:08:37.594Z,24.05
2018-06-22T12:09:37.639Z,24.29
2018-06-22T12:10:37.706Z,23.02
2018-06-22T12:11:37.764Z,22.80
2018-06-22T12:12:37.672Z,22.89
2018-06-22T12:13:37.627Z,23.01
2018-06-22T12:14:37.684Z,23.11
2018-06-22T12:15:37.680Z,23.29
2018-06-22T12:16:37.659Z,22.74
2018-06-22T12:17:37.659Z,22.17
2018-06-22T12:18:37.680Z,21.32
2018-06-22T12:19:37.678Z,20.34
2018-06-22T12:20:37.675Z,20.41
2018-06-22T12:21:37.751Z,19.84
2018-06-22T12:22:37.687Z,20.21
2018-06-22T12:23:37.692Z,20.72
2018-06-22T12:24:37.749Z,21.01
2018-06-22T12:25:37.704Z,22.67
2018-06-22T12:26:37.743Z,23.85
2018-06-22T12:27:37.827Z,24.07
2018-06-22T12:28:37.755Z,23.76
2018-06-22T12:29:37.732Z,24.31
2018-06-22T12:30:37.785Z,24.83
2018-06-22T12:31:37.740Z,24.73
2018-06-22T12:32:37.753Z,24.60
2018-06-22T12:33:37.812Z,24.45
2018-06-22T12:34:37.772Z,24.02
2018-06-22T12:35:37.775Z,23.49
2018-06-22T12:36:37.820Z,23.35
2018-06-22T12:37:37.790Z,23.46
2018-06-22T12:38:37.798Z,23.52
2018-06-22T12:39:37.837Z,23.67
2018-06-22T12:40:37.815Z,23.04
2018-06-22T12:41:37.819Z,22.57
2018-06-22T12:42:37.881Z,22.46
2018-06-22T12:43:37.836Z,22.41
2018-06-22T12:44:37.842Z,22.37
2018-06-22T12:45:37.874Z,22.04
2018-06-22T12:46:37.854Z,21.88
2018-06-22T12:47:37.858Z,21.97
2018-06-22T12:48:37.925Z,21.79
2018-06-22T12:49:37.875Z,21.50
2018-06-22T12:50:37.912Z,21.36
2018-06-22T12:51:37.912Z,21.56
2018-06-22T12:52:37.898Z,21.26
2018-06-22T12:53:37.938Z,20.74
2018-06-22T12:54:37.898Z,20.86
2018-06-22T12:55:37.959Z,20.24
2018-06-22T12:56:37.921Z,20.09
2018-06-22T12:57:37.947Z,20.24
2018-06-22T12:58:37.950Z,20.00
2018-06-22T12:59:37.980Z,20.33
2018-06-22T13:00:37.942Z,20.30
2018-06-22T13:01:37.961Z,20.74
2018-06-22T13:02:37.953Z,20.49
2018-06-22T13:03:37.940Z,20.33
2018-06-22T13:04:37.964Z,20.30
2018-06-22T13:05:37.942Z,20.21
2018-06-22T13:06:38.033Z,20.00
2018-06-22T13:07:37.958Z,19.94
2018-06-22T13:08:37.989Z,20.30
2018-06-22T13:09:37.997Z,20.35
2018-06-22T13:10:38.150Z,20.64
2018-06-22T13:11:37.987Z,20.77
2018-06-22T13:12:38.031Z,20.64
2018-06-22T13:13:37.988Z,20.90
2018-06-22T13:14:37.973Z,20.91
2018-06-22T13:15:37.971Z,20.87
2018-06-22T13:16:37.981Z,20.90
2018-06-22T13:17:38.022Z,20.68
2018-06-22T13:18:37.999Z,21.13
2018-06-22T13:19:38.021Z,21.01
2018-06-22T13:20:37.987Z,21.16
2018-06-22T13:21:38.007Z,21.48
2018-06-22T13:22:38.014Z,21.42
2018-06-22T13:23:38.014Z,21.85
2018-06-22T13:24:38.025Z,21.94
2018-06-22T13:25:38.015Z,22.16
2018-06-22T13:26:38.007Z,21.61
2018-06-22T13:27:38.011Z,21.39
2018-06-22T13:28:38.036Z,20.89
2018-06-22T13:29:38.034Z,20.64
2018-06-22T13:30:38.041Z,20.50
2018-06-22T13:31:38.035Z,20.50